createdAt,value
2024-03-02T00:00:02.060Z,938.42
2024-03-02T00:00:12.112Z,938.42
2024-03-02T00:00:22.134Z,938.41
2024-03-02T00:00:32.213Z,938.42
2024-03-02T00:00:42.325Z,938.41
2024-03-02T00:00:52.275Z,938.42
2024-03-02T00:01:02.258Z,938.43
2024-03-02T00:01:12.192Z,938.42
2024-03-02T00:01:32.204Z,938.44
2024-03-02T00:01:42.094Z,938.43
2024-03-02T00:01:52.093Z,938.42
2024-03-02T00:02:02.075Z,938.41
2024-03-02T00:02:12.093Z,938.42
2024-03-02T00:02:22.080Z,938.42
2024-03-02T00:02:42.098Z,938.41
2024-03-02T00:02:52.082Z,938.41
2024-03-02T00:03:02.083Z,938.41
2024-03-02T00:03:12.099Z,938.40
2024-03-02T00:03:22.087Z,938.40
2024-03-02T00:03:32.107Z,938.41
2024-03-02T00:03:52.220Z,938.40
2024-03-02T00:04:02.158Z,938.39
2024-03-02T00:04:12.085Z,938.39
2024-03-02T00:04:22.083Z,938.38
2024-03-02T00:04:32.090Z,938.39
2024-03-02T00:04:42.101Z,938.39
2024-03-02T00:05:02.118Z,938.38
2024-03-02T00:05:12.136Z,938.38
2024-03-02T00:05:22.102Z,938.39
2024-03-02T00:05:32.090Z,938.37
2024-03-02T00:05:42.109Z,938.36
2024-03-02T00:05:52.101Z,938.37
2024-03-02T00:06:02.111Z,938.38
2024-03-02T00:06:22.136Z,938.38
2024-03-02T00:06:32.138Z,938.38
2024-03-02T00:06:42.161Z,938.38
2024-03-02T00:06:52.136Z,938.38
2024-03-02T00:07:02.148Z,938.38
2024-03-02T00:07:12.117Z,938.38
2024-03-02T00:07:22.204Z,938.38
2024-03-02T00:07:32.098Z,938.37
2024-03-02T00:07:52.099Z,938.37
2024-03-02T00:08:02.109Z,938.38
2024-03-02T00:08:12.119Z,938.37
2024-03-02T00:08:22.103Z,938.36
2024-03-02T00:08:32.104Z,938.36
2024-03-02T00:08:42.102Z,938.36
2024-03-02T00:08:52.103Z,938.36
2024-03-02T00:09:02.115Z,938.36
2024-03-02T00:09:12.121Z,938.36
2024-03-02T00:09:22.160Z,938.35
2024-03-02T00:09:32.133Z,938.33
2024-03-02T00:09:42.157Z,938.35
2024-03-02T00:10:02.134Z,938.36
2024-03-02T00:10:12.091Z,938.36
2024-03-02T00:10:22.144Z,938.36
2024-03-02T00:10:32.120Z,938.37
2024-03-02T00:10:42.107Z,938.35
2024-03-02T00:10:52.126Z,938.36
2024-03-02T00:11:02.180Z,938.36
2024-03-02T00:11:12.184Z,938.37
2024-03-02T00:11:22.151Z,938.36
2024-03-02T00:11:32.174Z,938.36
2024-03-02T00:11:42.120Z,938.35
2024-03-02T00:11:52.121Z,938.36
2024-03-02T00:12:02.130Z,938.36
2024-03-02T00:12:12.217Z,938.35
2024-03-02T00:12:22.118Z,938.35
2024-03-02T00:12:32.156Z,938.34
2024-03-02T00:12:42.220Z,938.35
2024-03-02T00:12:52.162Z,938.36
2024-03-02T00:13:02.122Z,938.37
2024-03-02T00:13:22.124Z,938.32
2024-03-02T00:13:32.142Z,938.33
2024-03-02T00:13:42.121Z,938.35
2024-03-02T00:13:52.140Z,938.34
2024-03-02T00:14:02.133Z,938.35
2024-03-02T00:14:12.126Z,938.34
2024-03-02T00:14:22.127Z,938.35
2024-03-02T00:14:32.122Z,938.35
2024-03-02T00:14:42.127Z,938.34
2024-03-02T00:14:52.143Z,938.35
2024-03-02T00:15:12.144Z,938.36
2024-03-02T00:15:22.208Z,938.36
2024-03-02T00:15:32.185Z,938.35
2024-03-02T00:15:42.208Z,938.35
2024-03-02T00:15:52.313Z,938.35
2024-03-02T00:16:02.190Z,938.34
2024-03-02T00:16:12.157Z,938.34
2024-03-02T00:16:32.133Z,938.35
2024-03-02T00:16:42.154Z,938.35
2024-03-02T00:16:52.157Z,938.33
2024-03-02T00:17:02.130Z,938.33
2024-03-02T00:17:12.157Z,938.33
2024-03-02T00:17:22.233Z,938.34
2024-03-02T00:17:32.158Z,938.33
2024-03-02T00:17:42.207Z,938.34
2024-03-02T00:18:02.214Z,938.34
2024-03-02T00:18:12.364Z,938.34
2024-03-02T00:18:22.169Z,938.34
2024-03-02T00:18:32.206Z,938.32
2024-03-02T00:18:42.177Z,938.34
2024-03-02T00:18:52.187Z,938.34
2024-03-02T00:19:02.232Z,938.34
2024-03-02T00:19:22.143Z,938.35
2024-03-02T00:19:32.146Z,938.35
2024-03-02T00:19:42.133Z,938.36
2024-03-02T00:19:52.150Z,938.34
2024-03-02T00:20:02.158Z,938.32
2024-03-02T00:20:12.150Z,938.34
2024-03-02T00:20:22.157Z,938.34
2024-03-02T00:20:32.150Z,938.32
2024-03-02T00:20:42.158Z,938.31
2024-03-02T00:20:52.150Z,938.31
2024-03-02T00:21:02.157Z,938.32
2024-03-02T00:21:12.262Z,938.32
2024-03-02T00:21:22.232Z,938.32
2024-03-02T00:21:32.283Z,938.33
2024-03-02T00:21:42.173Z,938.33
2024-03-02T00:21:52.192Z,938.34
2024-03-02T00:22:02.182Z,938.33
2024-03-02T00:22:12.170Z,938.34
2024-03-02T00:22:22.173Z,938.34
2024-03-02T00:22:32.165Z,938.33
2024-03-02T00:22:42.172Z,938.33
2024-03-02T00:22:52.170Z,938.33
2024-03-02T00:23:02.172Z,938.33
2024-03-02T00:23:12.176Z,938.34
2024-03-02T00:23:32.452Z,938.34
2024-03-02T00:23:42.169Z,938.35
2024-03-02T00:23:52.163Z,938.34
2024-03-02T00:24:02.194Z,938.34
2024-03-02T00:24:12.228Z,938.35
2024-03-02T00:24:22.195Z,938.35
2024-03-02T00:24:42.183Z,938.35
2024-03-02T00:24:52.276Z,938.34
2024-03-02T00:25:02.173Z,938.34
2024-03-02T00:25:12.170Z,938.34
2024-03-02T00:25:22.176Z,938.35
2024-03-02T00:25:32.174Z,938.35
2024-03-02T00:25:42.165Z,938.34
2024-03-02T00:25:52.173Z,938.34
2024-03-02T00:26:02.262Z,938.34
2024-03-02T00:26:12.177Z,938.33
2024-03-02T00:26:22.197Z,938.33
2024-03-02T00:26:32.185Z,938.35
2024-03-02T00:26:42.171Z,938.35
2024-03-02T00:26:52.176Z,938.35
2024-03-02T00:27:02.189Z,938.36
2024-03-02T00:27:12.235Z,938.36
2024-03-02T00:27:22.225Z,938.34
2024-03-02T00:27:32.207Z,938.35
2024-03-02T00:27:52.257Z,938.35
2024-03-02T00:28:02.184Z,938.35
2024-03-02T00:28:12.194Z,938.36
2024-03-02T00:28:22.188Z,938.37
2024-03-02T00:28:32.189Z,938.37
2024-03-02T00:28:42.204Z,938.38
2024-03-02T00:28:52.232Z,938.37
2024-03-02T00:29:02.195Z,938.36
2024-03-02T00:29:12.198Z,938.37
2024-03-02T00:29:22.195Z,938.37
2024-03-02T00:29:32.222Z,938.37
2024-03-02T00:29:42.237Z,938.35
2024-03-02T00:29:52.316Z,938.33
2024-03-02T00:30:02.195Z,938.34
2024-03-02T00:30:22.200Z,938.34
2024-03-02T00:30:32.202Z,938.35
2024-03-02T00:30:42.235Z,938.35
2024-03-02T00:30:52.310Z,938.35
2024-03-02T00:31:02.243Z,938.34
2024-03-02T00:31:13.071Z,938.34
2024-03-02T00:31:22.207Z,938.34
2024-03-02T00:31:42.206Z,938.34
2024-03-02T00:31:52.206Z,938.33
2024-03-02T00:32:02.216Z,938.33
2024-03-02T00:32:12.204Z,938.33
2024-03-02T00:32:22.230Z,938.33
2024-03-02T00:32:32.258Z,938.34
2024-03-02T00:32:42.222Z,938.33
2024-03-02T00:32:52.234Z,938.33
2024-03-02T00:33:02.388Z,938.33
2024-03-02T00:33:12.335Z,938.33
2024-03-02T00:33:32.273Z,938.34
2024-03-02T00:33:42.249Z,938.34
2024-03-02T00:33:52.282Z,938.34
2024-03-02T00:34:02.278Z,938.34
2024-03-02T00:34:12.344Z,938.34
2024-03-02T00:34:22.240Z,938.35
2024-03-02T00:34:42.223Z,938.35
2024-03-02T00:34:52.234Z,938.35
2024-03-02T00:35:02.214Z,938.34
2024-03-02T00:35:12.219Z,938.34
2024-03-02T00:35:22.218Z,938.34
2024-03-02T00:35:32.222Z,938.35
2024-03-02T00:35:42.205Z,938.35
2024-03-02T00:35:52.239Z,938.34
2024-03-02T00:36:02.220Z,938.34
2024-03-02T00:36:12.242Z,938.34
2024-03-02T00:36:22.249Z,938.34
2024-03-02T00:36:32.288Z,938.33
2024-03-02T00:36:42.235Z,938.33
2024-03-02T00:36:52.351Z,938.34
2024-03-02T00:37:02.335Z,938.34
2024-03-02T00:37:12.256Z,938.33
2024-03-02T00:37:22.244Z,938.34
2024-03-02T00:37:32.244Z,938.34
2024-03-02T00:37:42.221Z,938.33
2024-03-02T00:37:52.233Z,938.33
2024-03-02T00:38:02.233Z,938.34
2024-03-02T00:38:12.234Z,938.34
2024-03-02T00:38:32.256Z,938.34
2024-03-02T00:38:42.239Z,938.33
2024-03-02T00:38:52.241Z,938.34
2024-03-02T00:39:02.240Z,938.35
2024-03-02T00:39:12.248Z,938.35
2024-03-02T00:39:22.241Z,938.35
2024-03-02T00:39:32.313Z,938.35
2024-03-02T00:39:52.321Z,938.36
2024-03-02T00:40:02.242Z,938.35
2024-03-02T00:40:12.238Z,938.35
2024-03-02T00:40:22.239Z,938.35
2024-03-02T00:40:32.253Z,938.36
2024-03-02T00:40:42.254Z,938.36
2024-03-02T00:40:52.245Z,938.36
2024-03-02T00:41:02.243Z,938.36
2024-03-02T00:41:12.242Z,938.36
2024-03-02T00:41:22.241Z,938.36
2024-03-02T00:41:32.273Z,938.35
2024-03-02T00:41:52.253Z,938.35
2024-03-02T00:42:02.263Z,938.34
2024-03-02T00:42:12.273Z,938.35
2024-03-02T00:42:22.280Z,938.33
2024-03-02T00:42:32.313Z,938.33
2024-03-02T00:42:42.337Z,938.32
2024-03-02T00:42:52.304Z,938.34
2024-03-02T00:43:02.259Z,938.33
2024-03-02T00:43:12.269Z,938.34
2024-03-02T00:43:32.272Z,938.34
2024-03-02T00:43:45.757Z,938.35
2024-03-02T00:43:52.263Z,938.35
2024-03-02T00:44:02.275Z,938.35
2024-03-02T00:44:12.280Z,938.35
2024-03-02T00:44:22.280Z,938.36
2024-03-02T00:44:32.263Z,938.35
2024-03-02T00:44:42.261Z,938.35
2024-03-02T00:44:52.265Z,938.34
2024-03-02T00:45:02.275Z,938.33
2024-03-02T00:45:12.310Z,938.34
2024-03-02T00:45:32.269Z,938.33
2024-03-02T00:45:42.290Z,938.33
2024-03-02T00:45:52.293Z,938.33
2024-03-02T00:46:02.266Z,938.33
2024-03-02T00:46:12.265Z,938.34
2024-03-02T00:46:22.269Z,938.34
2024-03-02T00:46:32.492Z,938.33
2024-03-02T00:46:42.280Z,938.33
2024-03-02T00:46:52.288Z,938.34
2024-03-02T00:47:02.283Z,938.35
2024-03-02T00:47:12.279Z,938.34
2024-03-02T00:47:22.314Z,938.33
2024-03-02T00:47:32.322Z,938.33
2024-03-02T00:47:42.302Z,938.33
2024-03-02T00:47:52.323Z,938.34
2024-03-02T00:48:02.394Z,938.33
2024-03-02T00:48:22.337Z,938.32
2024-03-02T00:48:32.310Z,938.33
2024-03-02T00:48:42.301Z,938.33
2024-03-02T00:48:52.385Z,938.33
2024-03-02T00:49:02.322Z,938.34
2024-03-02T00:49:12.297Z,938.33
2024-03-02T00:49:22.315Z,938.33
2024-03-02T00:49:32.292Z,938.32
2024-03-02T00:49:43.059Z,938.33
2024-03-02T00:49:52.278Z,938.32
2024-03-02T00:50:04.519Z,938.32
2024-03-02T00:50:20.189Z,938.34
2024-03-02T00:50:30.213Z,938.34
2024-03-02T00:50:33.304Z,938.34
2024-03-02T00:50:52.300Z,938.34
2024-03-02T00:51:02.304Z,938.35
2024-03-02T00:51:12.362Z,938.34
2024-03-02T00:51:22.321Z,938.33
2024-03-02T00:51:32.340Z,938.34
2024-03-02T00:51:42.335Z,938.34
2024-03-02T00:51:52.471Z,938.35
2024-03-02T00:52:02.378Z,938.34
2024-03-02T00:52:12.290Z,938.35
2024-03-02T00:52:22.309Z,938.35
2024-03-02T00:52:32.313Z,938.35
2024-03-02T00:52:42.294Z,938.34
2024-03-02T00:52:52.320Z,938.35
2024-03-02T00:53:02.293Z,938.35
2024-03-02T00:53:12.298Z,938.36
2024-03-02T00:53:32.304Z,938.36
2024-03-02T00:53:42.299Z,938.37
2024-03-02T00:53:52.329Z,938.36
2024-03-02T00:54:02.322Z,938.36
2024-03-02T00:54:12.415Z,938.36
2024-03-02T00:54:22.422Z,938.37
2024-03-02T00:54:32.345Z,938.37
2024-03-02T00:54:42.348Z,938.36
2024-03-02T00:54:52.390Z,938.36
2024-03-02T00:55:12.322Z,938.36
2024-03-02T00:55:22.308Z,938.36
2024-03-02T00:55:32.330Z,938.35
2024-03-02T00:55:42.307Z,938.35
2024-03-02T00:55:52.314Z,938.36
2024-03-02T00:56:02.305Z,938.36
2024-03-02T00:56:12.324Z,938.36
2024-03-02T00:56:22.319Z,938.35
2024-03-02T00:56:32.312Z,938.35
2024-03-02T00:56:42.312Z,938.37
2024-03-02T00:56:52.311Z,938.36
2024-03-02T00:57:02.308Z,938.36
2024-03-02T00:57:22.370Z,938.36
2024-03-02T00:57:32.353Z,938.35
2024-03-02T00:57:42.406Z,938.36
2024-03-02T00:57:52.370Z,938.35
2024-03-02T00:58:02.320Z,938.33
2024-03-02T00:58:12.310Z,938.34
2024-03-02T00:58:32.331Z,938.34
2024-03-02T00:58:42.352Z,938.34
2024-03-02T00:58:53.265Z,938.35
2024-03-02T00:59:02.362Z,938.35
2024-03-02T00:59:12.320Z,938.35
2024-03-02T00:59:22.323Z,938.34
2024-03-02T00:59:32.321Z,938.34
2024-03-02T00:59:52.328Z,938.35
2024-03-02T01:00:02.324Z,938.36
2024-03-02T01:00:12.372Z,938.35
2024-03-02T01:00:22.353Z,938.34
2024-03-02T01:00:32.427Z,938.32
2024-03-02T01:00:42.397Z,938.33
2024-03-02T01:00:52.397Z,938.33
2024-03-02T01:01:02.570Z,938.33
2024-03-02T01:01:12.424Z,938.34
2024-03-02T01:01:22.367Z,938.34
2024-03-02T01:01:32.388Z,938.34
2024-03-02T01:01:52.374Z,938.36
2024-03-02T01:02:02.333Z,938.36
2024-03-02T01:02:12.330Z,938.35
2024-03-02T01:02:22.370Z,938.35
2024-03-02T01:02:32.335Z,938.36
2024-03-02T01:02:42.335Z,938.36
2024-03-02T01:02:52.330Z,938.35
2024-03-02T01:03:02.333Z,938.35
2024-03-02T01:03:12.348Z,938.35
2024-03-02T01:03:32.480Z,938.35
2024-03-02T01:03:42.402Z,938.36
2024-03-02T01:03:52.437Z,938.36
2024-03-02T01:04:02.362Z,938.36
2024-03-02T01:04:12.339Z,938.37
2024-03-02T01:04:22.336Z,938.34
2024-03-02T01:04:32.363Z,938.36
2024-03-02T01:04:42.380Z,938.35
2024-03-02T01:04:52.346Z,938.35
2024-03-02T01:05:02.362Z,938.34
2024-03-02T01:05:12.340Z,938.35
2024-03-02T01:05:22.342Z,938.35
2024-03-02T01:05:32.360Z,938.35
2024-03-02T01:05:42.352Z,938.35
2024-03-02T01:05:52.364Z,938.34
2024-03-02T01:06:02.343Z,938.35
2024-03-02T01:06:12.386Z,938.34
2024-03-02T01:06:22.396Z,938.35
2024-03-02T01:06:32.372Z,938.36
2024-03-02T01:06:42.425Z,938.35
2024-03-02T01:06:52.444Z,938.34
2024-03-02T01:07:02.446Z,938.34
2024-03-02T01:07:12.374Z,938.34
2024-03-02T01:07:22.374Z,938.35
2024-03-02T01:07:32.367Z,938.35
2024-03-02T01:07:42.363Z,938.35
2024-03-02T01:08:02.371Z,938.35
2024-03-02T01:08:12.365Z,938.35
2024-03-02T01:08:22.353Z,938.35
2024-03-02T01:08:32.361Z,938.33
2024-03-02T01:08:42.357Z,938.36
2024-03-02T01:08:53.093Z,938.33
2024-03-02T01:09:02.367Z,938.34
2024-03-02T01:09:12.431Z,938.34
2024-03-02T01:09:22.425Z,938.34
2024-03-02T01:09:32.369Z,938.35
2024-03-02T01:09:42.644Z,938.36
2024-03-02T01:09:52.450Z,938.34
2024-03-02T01:10:02.476Z,938.34
2024-03-02T01:10:12.392Z,938.34
2024-03-02T01:10:22.379Z,938.33
2024-03-02T01:10:42.380Z,938.35
2024-03-02T01:10:52.390Z,938.34
2024-03-02T01:11:02.381Z,938.34
2024-03-02T01:11:12.492Z,938.35
2024-03-02T01:11:22.449Z,938.34
2024-03-02T01:11:32.423Z,938.34
2024-03-02T01:11:42.396Z,938.33
2024-03-02T01:11:52.414Z,938.34
2024-03-02T01:12:02.386Z,938.34
2024-03-02T01:12:12.472Z,938.34
2024-03-02T01:12:22.415Z,938.34
2024-03-02T01:12:32.441Z,938.34
2024-03-02T01:12:42.429Z,938.34
2024-03-02T01:13:02.380Z,938.33
2024-03-02T01:13:12.375Z,938.33
2024-03-02T01:13:22.374Z,938.33
2024-03-02T01:13:32.380Z,938.33
2024-03-02T01:13:42.383Z,938.32
2024-03-02T01:13:52.402Z,938.31
2024-03-02T01:14:02.377Z,938.33
2024-03-02T01:14:12.376Z,938.27
2024-03-02T01:14:22.382Z,938.29
2024-03-02T01:14:32.381Z,938.30
2024-03-02T01:14:42.398Z,938.29
2024-03-02T01:14:52.394Z,938.29
2024-03-02T01:15:02.400Z,938.29
2024-03-02T01:15:12.384Z,938.30
2024-03-02T01:15:22.427Z,938.32
2024-03-02T01:15:42.466Z,938.31
2024-03-02T01:15:52.510Z,938.31
2024-03-02T01:16:02.421Z,938.31
2024-03-02T01:16:12.407Z,938.31
2024-03-02T01:16:22.404Z,938.30
2024-03-02T01:16:32.388Z,938.30
2024-03-02T01:16:42.419Z,938.31
2024-03-02T01:16:52.392Z,938.32
2024-03-02T01:17:02.435Z,938.30
2024-03-02T01:17:12.414Z,938.30
2024-03-02T01:17:32.406Z,938.27
2024-03-02T01:17:42.403Z,938.29
2024-03-02T01:17:55.728Z,938.25
2024-03-02T01:18:02.398Z,938.25
2024-03-02T01:18:12.428Z,938.26
2024-03-02T01:18:22.431Z,938.26
2024-03-02T01:18:32.453Z,938.27
2024-03-02T01:18:42.480Z,938.27
2024-03-02T01:18:52.519Z,938.27
2024-03-02T01:19:02.545Z,938.27
2024-03-02T01:19:12.578Z,938.28
2024-03-02T01:19:22.478Z,938.27
2024-03-02T01:19:32.409Z,938.27
2024-03-02T01:19:42.536Z,938.25
2024-03-02T01:19:52.419Z,938.26
2024-03-02T01:20:02.419Z,938.26
2024-03-02T01:20:12.413Z,938.26
2024-03-02T01:20:22.467Z,938.27
2024-03-02T01:20:32.427Z,938.26
2024-03-02T01:20:52.473Z,938.27
2024-03-02T01:21:02.463Z,938.27
2024-03-02T01:21:12.454Z,938.26
2024-03-02T01:21:22.466Z,938.26
2024-03-02T01:21:32.468Z,938.26
2024-03-02T01:21:42.455Z,938.25
2024-03-02T01:22:02.538Z,938.27
2024-03-02T01:22:12.456Z,938.25
2024-03-02T01:22:22.424Z,938.25
2024-03-02T01:22:32.446Z,938.24
2024-03-02T01:22:42.430Z,938.23
2024-03-02T01:22:52.425Z,938.23
2024-03-02T01:23:12.438Z,938.25
2024-03-02T01:23:22.425Z,938.24
2024-03-02T01:23:32.432Z,938.26
2024-03-02T01:23:42.429Z,938.26
2024-03-02T01:23:52.428Z,938.27
2024-03-02T01:24:02.431Z,938.26
2024-03-02T01:24:22.460Z,938.26
2024-03-02T01:24:32.468Z,938.25
2024-03-02T01:24:42.490Z,938.26
2024-03-02T01:24:52.471Z,938.26
2024-03-02T01:25:02.492Z,938.24
2024-03-02T01:25:12.457Z,938.24
2024-03-02T01:25:22.444Z,938.25
2024-03-02T01:25:32.442Z,938.25
2024-03-02T01:25:52.448Z,938.24
2024-03-02T01:26:02.438Z,938.24
2024-03-02T01:26:12.439Z,938.24
2024-03-02T01:26:22.448Z,938.25
2024-03-02T01:26:32.432Z,938.24
2024-03-02T01:26:42.449Z,938.22
2024-03-02T01:26:52.491Z,938.23
2024-03-02T01:27:02.440Z,938.24
2024-03-02T01:27:12.463Z,938.25
2024-03-02T01:27:22.475Z,938.26
2024-03-02T01:27:32.466Z,938.27
2024-03-02T01:27:42.486Z,938.26
2024-03-02T01:28:02.593Z,938.23
2024-03-02T01:28:12.502Z,938.25
2024-03-02T01:28:22.471Z,938.26
2024-03-02T01:28:32.454Z,938.24
2024-03-02T01:28:42.475Z,938.24
2024-03-02T01:28:52.458Z,938.24
2024-03-02T01:29:03.062Z,938.23
2024-03-02T01:29:22.470Z,938.23
2024-03-02T01:29:32.564Z,938.24
2024-03-02T01:29:42.470Z,938.24
2024-03-02T01:29:52.475Z,938.22
2024-03-02T01:30:02.460Z,938.25
2024-03-02T01:30:12.502Z,938.24
2024-03-02T01:30:22.502Z,938.22
2024-03-02T01:30:32.474Z,938.23
2024-03-02T01:30:42.493Z,938.25
2024-03-02T01:31:02.488Z,938.23
2024-03-02T01:31:12.477Z,938.23
2024-03-02T01:31:22.463Z,938.25
2024-03-02T01:31:32.465Z,938.25
2024-03-02T01:31:42.468Z,938.20
2024-03-02T01:31:52.492Z,938.23
2024-03-02T01:32:02.479Z,938.22
2024-03-02T01:32:12.469Z,938.19
2024-03-02T01:32:22.469Z,938.20
2024-03-02T01:32:32.494Z,938.21
2024-03-02T01:32:42.535Z,938.21
2024-03-02T01:32:52.526Z,938.19
2024-03-02T01:33:02.549Z,938.20
2024-03-02T01:33:12.548Z,938.22
2024-03-02T01:33:22.588Z,938.22
2024-03-02T01:33:42.581Z,938.21
2024-03-02T01:33:52.517Z,938.22
2024-03-02T01:34:02.743Z,938.24
2024-03-02T01:34:12.509Z,938.22
2024-03-02T01:34:22.477Z,938.24
2024-03-02T01:34:32.481Z,938.24
2024-03-02T01:34:42.508Z,938.24
2024-03-02T01:34:52.499Z,938.24
2024-03-02T01:35:02.487Z,938.24
2024-03-02T01:35:12.486Z,938.25
2024-03-02T01:35:22.486Z,938.25
2024-03-02T01:35:32.496Z,938.25
2024-03-02T01:35:52.503Z,938.25
2024-03-02T01:36:02.493Z,938.25
2024-03-02T01:36:12.494Z,938.26
2024-03-02T01:36:22.568Z,938.26
2024-03-02T01:36:32.553Z,938.26
2024-03-02T01:36:42.536Z,938.26
2024-03-02T01:36:52.547Z,938.26
2024-03-02T01:37:02.515Z,938.26
2024-03-02T01:37:12.496Z,938.26
2024-03-02T01:37:32.507Z,938.27
2024-03-02T01:37:42.494Z,938.27
2024-03-02T01:37:52.501Z,938.27
2024-03-02T01:38:02.504Z,938.26
2024-03-02T01:38:12.495Z,938.27
2024-03-02T01:38:22.499Z,938.24
2024-03-02T01:38:42.497Z,938.28
2024-03-02T01:38:52.511Z,938.25
2024-03-02T01:39:02.524Z,938.27
2024-03-02T01:39:12.511Z,938.27
2024-03-02T01:39:22.526Z,938.26
2024-03-02T01:39:32.522Z,938.25
2024-03-02T01:39:42.632Z,938.27
2024-03-02T01:39:52.566Z,938.26
2024-03-02T01:40:02.503Z,938.26
2024-03-02T01:40:12.519Z,938.25
2024-03-02T01:40:22.509Z,938.25
2024-03-02T01:40:42.509Z,938.26
2024-03-02T01:40:52.513Z,938.25
2024-03-02T01:41:02.514Z,938.25
2024-03-02T01:41:12.523Z,938.25
2024-03-02T01:41:22.526Z,938.26
2024-03-02T01:41:32.525Z,938.25
2024-03-02T01:41:42.513Z,938.25
2024-03-02T01:41:52.513Z,938.25
2024-03-02T01:42:02.517Z,938.24
2024-03-02T01:42:12.522Z,938.23
2024-03-02T01:42:22.571Z,938.24
2024-03-02T01:42:32.575Z,938.24
2024-03-02T01:42:42.533Z,938.25
2024-03-02T01:42:52.585Z,938.25
2024-03-02T01:43:02.549Z,938.26
2024-03-02T01:43:12.526Z,938.25
2024-03-02T01:43:22.523Z,938.24
2024-03-02T01:43:42.541Z,938.21
2024-03-02T01:43:52.539Z,938.22
2024-03-02T01:44:02.522Z,938.22
2024-03-02T01:44:12.535Z,938.19
2024-03-02T01:44:22.529Z,938.22
2024-03-02T01:44:32.552Z,938.21
2024-03-02T01:44:42.548Z,938.21
2024-03-02T01:44:52.577Z,938.24
2024-03-02T01:45:02.601Z,938.23
2024-03-02T01:45:13.187Z,938.23
2024-03-02T01:45:22.557Z,938.22
2024-03-02T01:45:32.582Z,938.23
2024-03-02T01:45:52.650Z,938.22
2024-03-02T01:46:02.628Z,938.23
2024-03-02T01:46:12.533Z,938.24
2024-03-02T01:46:22.545Z,938.23
2024-03-02T01:46:32.536Z,938.25
2024-03-02T01:46:42.563Z,938.26
2024-03-02T01:46:52.541Z,938.24
2024-03-02T01:47:02.538Z,938.21
2024-03-02T01:47:12.540Z,938.24
2024-03-02T01:47:22.541Z,938.23
2024-03-02T01:47:33.107Z,938.25
2024-03-02T01:47:42.566Z,938.24
2024-03-02T01:47:52.602Z,938.25
2024-03-02T01:48:02.569Z,938.25
2024-03-02T01:48:12.593Z,938.26
2024-03-02T01:48:22.564Z,938.26
2024-03-02T01:48:42.614Z,938.26
2024-03-02T01:48:52.581Z,938.28
2024-03-02T01:49:02.592Z,938.26
2024-03-02T01:49:12.550Z,938.27
2024-03-02T01:49:22.548Z,938.27
2024-03-02T01:49:32.547Z,938.26
2024-03-02T01:49:42.566Z,938.26
2024-03-02T01:49:52.554Z,938.27
2024-03-02T01:50:02.549Z,938.27
2024-03-02T01:50:22.552Z,938.26
2024-03-02T01:50:32.583Z,938.25
2024-03-02T01:50:42.557Z,938.26
2024-03-02T01:50:52.582Z,938.26
2024-03-02T01:51:02.557Z,938.28
2024-03-02T01:51:12.554Z,938.26
2024-03-02T01:51:22.586Z,938.27
2024-03-02T01:51:32.560Z,938.26
2024-03-02T01:51:42.596Z,938.26
2024-03-02T01:51:52.586Z,938.25
2024-03-02T01:52:02.666Z,938.26
2024-03-02T01:52:12.568Z,938.26
2024-03-02T01:52:22.595Z,938.26
2024-03-02T01:52:32.562Z,938.26
2024-03-02T01:52:42.578Z,938.27
2024-03-02T01:52:52.567Z,938.26
2024-03-02T01:53:12.567Z,938.28
2024-03-02T01:53:22.573Z,938.26
2024-03-02T01:53:32.570Z,938.26
2024-03-02T01:53:42.573Z,938.26
2024-03-02T01:53:52.587Z,938.26
2024-03-02T01:54:02.568Z,938.26
2024-03-02T01:54:12.569Z,938.28
2024-03-02T01:54:24.450Z,938.27
2024-03-02T01:54:32.615Z,938.27
2024-03-02T01:54:42.649Z,938.28
2024-03-02T01:55:02.604Z,938.28
2024-03-02T01:55:12.575Z,938.28
2024-03-02T01:55:22.579Z,938.28
2024-03-02T01:55:32.575Z,938.29
2024-03-02T01:55:42.597Z,938.29
2024-03-02T01:55:52.576Z,938.27
2024-03-02T01:56:02.615Z,938.28
2024-03-02T01:56:12.574Z,938.29
2024-03-02T01:56:22.579Z,938.29
2024-03-02T01:56:32.582Z,938.28
2024-03-02T01:56:42.647Z,938.28
2024-03-02T01:56:52.583Z,938.28
2024-03-02T01:57:02.580Z,938.30
2024-03-02T01:57:12.580Z,938.27
2024-03-02T01:57:22.618Z,938.28
2024-03-02T01:57:32.602Z,938.29
2024-03-02T01:57:42.647Z,938.29
2024-03-02T01:57:52.618Z,938.29
2024-03-02T01:58:12.592Z,938.29
2024-03-02T01:58:22.583Z,938.30
2024-03-02T01:58:32.589Z,938.28
2024-03-02T01:58:42.594Z,938.27
2024-03-02T01:58:52.591Z,938.28
2024-03-02T01:59:02.602Z,938.28
2024-03-02T01:59:12.623Z,938.28
2024-03-02T01:59:22.592Z,938.29
2024-03-02T01:59:32.613Z,938.29
2024-03-02T01:59:42.711Z,938.28
2024-03-02T01:59:52.592Z,938.29
2024-03-02T02:00:12.619Z,938.28
2024-03-02T02:00:22.642Z,938.29
2024-03-02T02:00:32.604Z,938.28
2024-03-02T02:00:42.746Z,938.29
2024-03-02T02:00:52.674Z,938.29
2024-03-02T02:01:02.704Z,938.29
2024-03-02T02:01:23.628Z,938.29
2024-03-02T02:01:32.660Z,938.28
2024-03-02T02:01:42.633Z,938.30
2024-03-02T02:01:52.608Z,938.30
2024-03-02T02:02:02.629Z,938.29
2024-03-02T02:02:12.604Z,938.29
2024-03-02T02:02:32.605Z,938.28
2024-03-02T02:02:42.625Z,938.28
2024-03-02T02:02:52.603Z,938.29
2024-03-02T02:03:02.605Z,938.29
2024-03-02T02:03:12.610Z,938.29
2024-03-02T02:03:22.642Z,938.28
2024-03-02T02:03:32.663Z,938.28
2024-03-02T02:03:52.624Z,938.31
2024-03-02T02:04:02.648Z,938.29
2024-03-02T02:04:12.615Z,938.27
2024-03-02T02:04:22.639Z,938.28
2024-03-02T02:04:32.665Z,938.28
2024-03-02T02:04:42.669Z,938.29
2024-03-02T02:04:52.618Z,938.28
2024-03-02T02:05:02.632Z,938.29
2024-03-02T02:05:12.621Z,938.29
2024-03-02T02:05:22.662Z,938.29
2024-03-02T02:05:32.626Z,938.27
2024-03-02T02:05:52.617Z,938.30
2024-03-02T02:06:02.628Z,938.28
2024-03-02T02:06:12.624Z,938.28
2024-03-02T02:06:22.669Z,938.28
2024-03-02T02:06:32.716Z,938.26
2024-03-02T02:06:42.714Z,938.25
2024-03-02T02:06:52.683Z,938.26
2024-03-02T02:07:02.668Z,938.27
2024-03-02T02:07:12.636Z,938.28
2024-03-02T02:07:22.627Z,938.29
2024-03-02T02:07:32.639Z,938.29
2024-03-02T02:07:52.637Z,938.29
2024-03-02T02:08:02.633Z,938.27
2024-03-02T02:08:12.660Z,938.26
2024-03-02T02:08:22.633Z,938.27
2024-03-02T02:08:32.635Z,938.28
2024-03-02T02:08:42.638Z,938.27
2024-03-02T02:08:52.656Z,938.28
2024-03-02T02:09:12.631Z,938.26
2024-03-02T02:09:22.689Z,938.27
2024-03-02T02:09:32.720Z,938.28
2024-03-02T02:09:42.705Z,938.24
2024-03-02T02:09:52.725Z,938.26
2024-03-02T02:10:02.717Z,938.26
2024-03-02T02:10:12.664Z,938.25
2024-03-02T02:10:32.657Z,938.26
2024-03-02T02:10:42.654Z,938.25
2024-03-02T02:10:52.677Z,938.26
2024-03-02T02:11:02.671Z,938.27
2024-03-02T02:11:12.683Z,938.25
2024-03-02T02:11:22.647Z,938.26
2024-03-02T02:11:42.634Z,938.26
2024-03-02T02:11:52.657Z,938.26
2024-03-02T02:12:02.644Z,938.24
2024-03-02T02:12:12.654Z,938.25
2024-03-02T02:12:22.719Z,938.25
2024-03-02T02:12:32.730Z,938.25
2024-03-02T02:12:43.023Z,938.24
2024-03-02T02:12:52.792Z,938.23
2024-03-02T02:13:02.710Z,938.24
2024-03-02T02:13:12.684Z,938.25
2024-03-02T02:13:22.654Z,938.23
2024-03-02T02:13:32.690Z,938.24
2024-03-02T02:13:52.657Z,938.23
2024-03-02T02:14:02.673Z,938.25
2024-03-02T02:14:12.657Z,938.23
2024-03-02T02:14:22.669Z,938.21
2024-03-02T02:14:32.657Z,938.22
2024-03-02T02:14:42.659Z,938.24
2024-03-02T02:14:52.661Z,938.22
2024-03-02T02:15:02.678Z,938.24
2024-03-02T02:15:12.682Z,938.21
2024-03-02T02:15:22.682Z,938.23
2024-03-02T02:15:32.703Z,938.24
2024-03-02T02:15:42.733Z,938.22
2024-03-02T02:15:52.693Z,938.23
2024-03-02T02:16:02.730Z,938.23